createdAt,value
2023-04-16T00:01:58.619Z,4.89
2023-04-16T00:04:25.540Z,4.80
2023-04-16T00:06:52.261Z,4.94
2023-04-16T00:09:19.559Z,4.88
2023-04-16T00:11:46.225Z,4.84
2023-04-16T00:14:12.890Z,4.87
2023-04-16T00:16:39.609Z,4.92
2023-04-16T00:19:06.981Z,4.90
2023-04-16T00:21:34.200Z,4.91
2023-04-16T00:24:00.920Z,4.85
2023-04-16T00:26:27.550Z,4.92
2023-04-16T00:28:54.204Z,4.97
2023-04-16T00:31:29.208Z,4.94
2023-04-16T00:33:56.173Z,4.90
2023-04-16T00:36:27.260Z,4.93
2023-04-16T00:38:54.759Z,4.94
2023-04-16T00:41:23.164Z,4.96
2023-04-16T00:43:50.152Z,5.03
2023-04-16T00:46:17.192Z,5.00
2023-04-16T00:48:44.388Z,4.96
2023-04-16T00:51:11.645Z,5.01
2023-04-16T00:53:38.353Z,4.81
2023-04-16T00:56:07.217Z,5.04
2023-04-16T00:58:35.162Z,4.90
2023-04-16T01:01:02.111Z,5.05
2023-04-16T01:03:39.752Z,5.02
2023-04-16T01:06:07.852Z,5.08
2023-04-16T01:08:34.492Z,5.06
2023-04-16T01:11:01.455Z,5.08
2023-04-16T01:13:28.109Z,5.07
2023-04-16T01:15:55.223Z,5.08
2023-04-16T01:18:23.126Z,5.07
2023-04-16T01:20:50.498Z,5.06
2023-04-16T01:23:18.715Z,5.07
2023-04-16T01:25:48.551Z,5.07
2023-04-16T01:28:15.929Z,5.06
2023-04-16T01:30:42.570Z,5.08
2023-04-16T01:33:11.535Z,5.08
2023-04-16T01:35:38.776Z,5.00
2023-04-16T01:38:06.403Z,5.07
2023-04-16T01:40:33.317Z,5.11
2023-04-16T01:42:59.944Z,5.12
2023-04-16T01:45:26.772Z,5.05
2023-04-16T01:47:53.519Z,5.12
2023-04-16T01:50:21.582Z,5.13
2023-04-16T01:52:48.247Z,5.06
2023-04-16T01:55:14.998Z,5.11
2023-04-16T01:57:41.747Z,5.11
2023-04-16T02:00:12.174Z,5.14
2023-04-16T02:02:42.095Z,4.98
2023-04-16T02:05:08.955Z,5.13
2023-04-16T02:07:35.818Z,5.06
2023-04-16T02:10:02.615Z,5.16
2023-04-16T02:12:30.386Z,5.16
2023-04-16T02:14:57.051Z,5.15
2023-04-16T02:17:23.732Z,5.15
2023-04-16T02:19:50.437Z,5.15
2023-04-16T02:22:17.390Z,5.18
2023-04-16T02:24:44.048Z,5.15
2023-04-16T02:27:10.702Z,5.15
2023-04-16T02:29:37.402Z,5.16
2023-04-16T02:32:10.720Z,5.19
2023-04-16T02:34:39.953Z,5.21
2023-04-16T02:37:06.563Z,5.11
2023-04-16T02:39:33.315Z,5.21
2023-04-16T02:42:01.558Z,5.18
2023-04-16T02:44:28.309Z,5.17
2023-04-16T02:46:54.959Z,5.15
2023-04-16T02:49:21.593Z,5.25
2023-04-16T02:51:48.182Z,5.20
2023-04-16T02:54:14.961Z,5.24
2023-04-16T02:56:41.632Z,5.21
2023-04-16T02:59:08.632Z,5.28
2023-04-16T03:01:35.472Z,5.25
2023-04-16T03:04:02.249Z,5.27
2023-04-16T03:06:31.531Z,5.27
2023-04-16T03:08:58.345Z,5.27
2023-04-16T03:11:25.035Z,5.28
2023-04-16T03:13:51.788Z,5.24
2023-04-16T03:16:18.516Z,5.27
2023-04-16T03:18:45.444Z,5.27
2023-04-16T03:21:13.758Z,5.20
2023-04-16T03:23:40.472Z,5.29
2023-04-16T03:26:07.153Z,5.31
2023-04-16T03:28:33.780Z,5.27
2023-04-16T03:31:00.795Z,5.23
2023-04-16T03:33:27.634Z,5.28
2023-04-16T03:35:58.177Z,5.29
2023-04-16T03:38:26.725Z,5.34
2023-04-16T03:40:53.507Z,4.84
2023-04-16T03:43:20.131Z,5.29
2023-04-16T03:45:47.528Z,5.36
2023-04-16T03:48:14.294Z,5.34
2023-04-16T03:50:41.358Z,5.34
2023-04-16T03:53:08.006Z,5.32
2023-04-16T03:55:35.438Z,5.31
2023-04-16T03:58:03.566Z,5.36
2023-04-16T04:00:30.823Z,5.35
2023-04-16T04:02:57.899Z,5.35
2023-04-16T04:05:24.807Z,5.37
2023-04-16T04:07:51.556Z,5.38
2023-04-16T04:10:18.280Z,5.41
2023-04-16T04:12:44.970Z,5.40
2023-04-16T04:15:11.955Z,5.45
2023-04-16T04:17:38.934Z,5.42
2023-04-16T04:20:06.477Z,5.37
2023-04-16T04:22:33.270Z,5.41
2023-04-16T04:24:59.945Z,5.40
2023-04-16T04:27:27.363Z,5.42
2023-04-16T04:29:54.082Z,5.50
2023-04-16T04:32:20.820Z,5.47
2023-04-16T04:34:47.415Z,5.46
2023-04-16T04:37:14.088Z,5.45
2023-04-16T04:39:40.719Z,5.48
2023-04-16T04:42:07.405Z,5.46
2023-04-16T04:44:34.077Z,5.47
2023-04-16T04:47:01.358Z,5.48
2023-04-16T04:49:28.158Z,5.44
2023-04-16T04:51:54.864Z,5.49
2023-04-16T04:54:21.490Z,5.56
2023-04-16T04:56:48.169Z,5.51
2023-04-16T04:59:15.144Z,5.59
2023-04-16T05:01:41.859Z,5.44
2023-04-16T05:04:08.733Z,5.51
2023-04-16T05:06:35.681Z,5.44
2023-04-16T05:09:02.323Z,5.63
2023-04-16T05:11:29.985Z,5.58
2023-04-16T05:13:57.058Z,5.61
2023-04-16T05:16:23.935Z,5.64
2023-04-16T05:18:50.664Z,5.72
2023-04-16T05:21:17.386Z,5.63
2023-04-16T05:23:44.039Z,5.66
2023-04-16T05:26:10.898Z,5.61
2023-04-16T05:28:37.494Z,5.66
2023-04-16T05:31:04.277Z,5.68
2023-04-16T05:33:31.008Z,5.74
2023-04-16T05:35:57.713Z,5.77
2023-04-16T05:38:24.451Z,5.79
2023-04-16T05:40:51.283Z,5.73
2023-04-16T05:43:18.401Z,5.79
2023-04-16T05:45:45.105Z,5.75
2023-04-16T05:48:12.492Z,5.49
2023-04-16T05:50:39.303Z,5.85
2023-04-16T05:53:08.116Z,5.88
2023-04-16T05:55:36.899Z,5.88
2023-04-16T05:58:06.371Z,5.81
2023-04-16T06:00:33.409Z,5.80
2023-04-16T06:03:00.278Z,5.78
2023-04-16T06:05:27.246Z,5.91
2023-04-16T06:07:53.935Z,5.91
2023-04-16T06:10:21.068Z,5.89
2023-04-16T06:12:47.786Z,5.96
2023-04-16T06:15:14.615Z,5.88
2023-04-16T06:17:42.574Z,6.00
2023-04-16T06:20:09.892Z,5.94
2023-04-16T06:22:36.633Z,5.98
2023-04-16T06:25:03.326Z,5.99
2023-04-16T06:27:31.392Z,6.03
2023-04-16T06:29:58.535Z,6.09
2023-04-16T06:32:25.812Z,6.12
2023-04-16T06:34:52.516Z,5.94
2023-04-16T06:37:19.168Z,5.99
2023-04-16T06:39:45.860Z,5.97
2023-04-16T06:42:12.537Z,5.98
2023-04-16T06:44:39.227Z,6.02
2023-04-16T06:47:06.029Z,6.08
2023-04-16T06:49:32.829Z,6.15
2023-04-16T06:51:59.536Z,6.12
2023-04-16T06:54:26.236Z,6.19
2023-04-16T06:56:53.150Z,6.19
2023-04-16T06:59:19.816Z,6.11
2023-04-16T07:01:46.480Z,6.17
2023-04-16T07:04:13.187Z,6.27
2023-04-16T07:06:39.853Z,6.19
2023-04-16T07:09:06.475Z,6.28
2023-04-16T07:11:35.999Z,6.02
2023-04-16T07:14:02.700Z,6.20
2023-04-16T07:16:29.525Z,6.24
2023-04-16T07:18:56.443Z,6.30
2023-04-16T07:21:23.069Z,6.29
2023-04-16T07:23:49.719Z,6.42
2023-04-16T07:26:16.342Z,6.29
2023-04-16T07:28:43.093Z,6.37
2023-04-16T07:31:09.821Z,6.36
2023-04-16T07:33:36.499Z,6.36
2023-04-16T07:36:03.144Z,6.36
2023-04-16T07:38:32.783Z,6.37
2023-04-16T07:40:59.435Z,6.31
2023-04-16T07:43:26.070Z,6.34
2023-04-16T07:45:52.725Z,6.41
2023-04-16T07:48:19.427Z,6.33
2023-04-16T07:50:46.208Z,6.24
2023-04-16T07:53:13.184Z,6.31
2023-04-16T07:55:39.804Z,6.28
2023-04-16T07:58:07.940Z,6.29
2023-04-16T08:00:34.574Z,6.35
2023-04-16T08:03:01.405Z,6.40
2023-04-16T08:05:28.345Z,6.45
2023-04-16T08:07:55.101Z,6.38
2023-04-16T08:10:21.949Z,6.34
2023-04-16T08:12:48.624Z,6.39
2023-04-16T08:15:15.830Z,6.42
2023-04-16T08:17:43.030Z,6.48
2023-04-16T08:20:12.189Z,6.65
2023-04-16T08:22:41.185Z,6.77
2023-04-16T08:25:08.592Z,6.57
2023-04-16T08:27:35.490Z,6.55
2023-04-16T08:30:05.532Z,6.59
2023-04-16T08:32:32.263Z,6.45
2023-04-16T08:34:59.211Z,6.48
2023-04-16T08:37:26.301Z,6.59
2023-04-16T08:39:53.249Z,6.43
2023-04-16T08:42:41.028Z,6.49
2023-04-16T08:45:09.679Z,6.46
2023-04-16T08:47:39.756Z,6.63
2023-04-16T08:50:07.042Z,6.60
2023-04-16T08:52:38.181Z,6.61
2023-04-16T08:55:10.107Z,6.69
2023-04-16T08:57:45.637Z,6.67
2023-04-16T09:00:12.678Z,6.57
2023-04-16T09:02:39.666Z,6.51
2023-04-16T09:05:07.960Z,6.54
2023-04-16T09:07:35.503Z,6.48
2023-04-16T09:10:02.321Z,6.49
2023-04-16T09:12:30.733Z,6.54
2023-04-16T09:14:59.853Z,6.42
2023-04-16T09:17:27.293Z,6.48
2023-04-16T09:19:54.986Z,6.43
2023-04-16T09:22:21.713Z,6.66
2023-04-16T09:24:48.482Z,6.65
2023-04-16T09:27:15.101Z,6.63
2023-04-16T09:29:42.180Z,6.68
2023-04-16T09:32:11.109Z,6.66
2023-04-16T09:34:59.732Z,6.63
2023-04-16T09:37:30.508Z,6.62
2023-04-16T09:39:58.077Z,6.66
2023-04-16T09:42:27.490Z,6.67
2023-04-16T09:44:55.000Z,6.84
2023-04-16T09:47:23.458Z,6.85
2023-04-16T09:49:50.510Z,6.93
2023-04-16T09:52:22.940Z,6.81
2023-04-16T09:54:54.023Z,6.75
2023-04-16T09:57:22.418Z,6.87
2023-04-16T09:59:53.085Z,6.75
2023-04-16T10:02:20.680Z,6.81
2023-04-16T10:04:51.936Z,6.75
2023-04-16T10:07:19.377Z,6.78
2023-04-16T10:09:48.672Z,6.90
2023-04-16T10:12:16.092Z,6.89
2023-04-16T10:14:43.067Z,6.92
2023-04-16T10:17:10.189Z,7.17
2023-04-16T10:19:37.302Z,7.21
2023-04-16T10:22:04.443Z,7.44
2023-04-16T10:24:32.560Z,7.02
2023-04-16T10:27:00.273Z,7.27
2023-04-16T10:29:28.408Z,7.07
2023-04-16T10:31:56.897Z,7.18
2023-04-16T10:34:24.886Z,7.17
2023-04-16T10:36:53.108Z,7.13
2023-04-16T10:39:23.582Z,6.91
2023-04-16T10:41:51.537Z,6.81
2023-04-16T10:44:19.769Z,6.83
2023-04-16T10:46:50.856Z,6.86
2023-04-16T10:49:19.267Z,6.89
2023-04-16T10:51:57.153Z,6.85
2023-04-16T10:54:26.113Z,6.85
2023-04-16T10:56:53.734Z,6.81
2023-04-16T10:59:22.306Z,6.87
2023-04-16T11:01:51.809Z,6.90
2023-04-16T11:04:21.643Z,6.88
2023-04-16T11:07:04.914Z,6.94
2023-04-16T11:09:50.661Z,6.96
2023-04-16T11:12:18.970Z,6.91
2023-04-16T11:14:48.981Z,6.69
2023-04-16T11:17:16.312Z,6.77
2023-04-16T11:19:43.790Z,6.57
2023-04-16T11:22:13.504Z,6.70
2023-04-16T11:24:41.070Z,6.73
2023-04-16T11:27:08.553Z,6.77
2023-04-16T11:29:35.497Z,6.82
2023-04-16T11:32:02.266Z,6.83
2023-04-16T11:34:29.460Z,6.85
2023-04-16T11:36:56.431Z,6.77
2023-04-16T11:39:23.603Z,6.87
2023-04-16T11:41:52.441Z,6.91
2023-04-16T11:44:24.355Z,6.92
2023-04-16T11:46:52.462Z,6.82
2023-04-16T11:49:31.207Z,6.83
2023-04-16T11:51:58.672Z,6.83
2023-04-16T11:54:25.779Z,6.99
2023-04-16T11:56:53.403Z,7.06
2023-04-16T11:59:23.211Z,6.97
2023-04-16T12:01:56.276Z,6.96
2023-04-16T12:04:27.563Z,6.83
2023-04-16T12:07:12.018Z,6.82
2023-04-16T12:09:41.147Z,6.84
2023-04-16T12:12:31.176Z,6.77
2023-04-16T12:15:00.335Z,6.84
2023-04-16T12:17:27.045Z,6.81
2023-04-16T12:20:07.009Z,6.89
2023-04-16T12:22:37.422Z,6.90
2023-04-16T12:25:06.231Z,6.90
2023-04-16T12:27:50.085Z,6.90
2023-04-16T12:30:21.097Z,6.83
2023-04-16T12:32:49.113Z,6.82
2023-04-16T12:35:30.608Z,6.87
2023-04-16T12:37:57.575Z,6.87
2023-04-16T12:40:24.399Z,6.93
2023-04-16T12:42:51.390Z,6.98
2023-04-16T12:45:18.036Z,6.99
2023-04-16T12:47:44.877Z,6.91
2023-04-16T12:50:11.685Z,6.84
2023-04-16T12:52:38.374Z,6.79
2023-04-16T12:55:05.318Z,6.85
2023-04-16T12:57:32.069Z,6.90
2023-04-16T12:59:59.084Z,7.00
2023-04-16T13:02:26.208Z,7.13
2023-04-16T13:04:54.222Z,7.11
2023-04-16T13:07:21.431Z,7.06
2023-04-16T13:09:48.977Z,6.96
2023-04-16T13:12:15.782Z,6.87
2023-04-16T13:14:51.751Z,6.87
2023-04-16T13:17:18.449Z,6.90
2023-04-16T13:19:45.977Z,7.01
2023-04-16T13:22:12.704Z,7.03
2023-04-16T13:24:39.449Z,6.94
2023-04-16T13:27:08.457Z,7.01
2023-04-16T13:29:36.788Z,7.14
2023-04-16T13:32:03.963Z,7.04
2023-04-16T13:34:31.032Z,7.13
2023-04-16T13:36:57.671Z,7.16
2023-04-16T13:39:24.283Z,7.20
2023-04-16T13:41:51.552Z,7.15
2023-04-16T13:44:18.329Z,7.15
2023-04-16T13:46:47.830Z,7.12
2023-04-16T13:49:15.104Z,7.18
2023-04-16T13:51:44.978Z,7.20
2023-04-16T13:54:11.688Z,7.20
2023-04-16T13:56:38.311Z,7.08
2023-04-16T13:59:05.015Z,7.16
2023-04-16T14:01:31.658Z,7.22
2023-04-16T14:03:59.594Z,7.29
2023-04-16T14:06:27.174Z,7.33
2023-04-16T14:08:54.257Z,7.28
2023-04-16T14:11:21.213Z,7.15
2023-04-16T14:13:47.953Z,7.32
2023-04-16T14:16:14.670Z,7.22
2023-04-16T14:18:42.507Z,7.14
2023-04-16T14:21:09.576Z,7.02
2023-04-16T14:23:36.303Z,7.16
2023-04-16T14:26:03.675Z,7.04
2023-04-16T14:28:30.576Z,7.13
2023-04-16T14:30:57.249Z,7.11
2023-04-16T14:33:24.005Z,7.03
2023-04-16T14:35:51.473Z,6.96
2023-04-16T14:38:18.152Z,6.95
2023-04-16T14:40:44.854Z,7.04
2023-04-16T14:43:11.523Z,6.90
2023-04-16T14:45:38.510Z,7.00
2023-04-16T14:48:06.373Z,7.05
2023-04-16T14:50:37.994Z,7.00
2023-04-16T14:53:05.742Z,7.03
2023-04-16T14:56:05.562Z,7.07
2023-04-16T14:58:23.974Z,6.95
2023-04-16T15:00:51.494Z,7.10
2023-04-16T15:03:21.341Z,7.04
2023-04-16T15:06:24.223Z,7.07
2023-04-16T15:08:59.457Z,7.06
2023-04-16T15:11:26.704Z,7.06
2023-04-16T15:13:53.914Z,6.97
2023-04-16T15:16:20.802Z,6.80
2023-04-16T15:18:47.952Z,6.95
2023-04-16T15:21:14.867Z,6.98
2023-04-16T15:23:41.784Z,6.95
2023-04-16T15:26:08.469Z,6.92
2023-04-16T15:28:35.174Z,6.92
2023-04-16T15:31:01.895Z,6.87
2023-04-16T15:33:28.609Z,6.84
2023-04-16T15:35:55.213Z,6.86
2023-04-16T15:38:21.831Z,6.85
2023-04-16T15:40:48.593Z,6.84
2023-04-16T15:43:16.057Z,6.80
2023-04-16T15:45:42.614Z,6.79
2023-04-16T15:48:09.339Z,6.81
2023-04-16T15:50:36.248Z,6.78
2023-04-16T15:53:03.489Z,6.78
2023-04-16T15:55:30.177Z,6.78
2023-04-16T15:57:57.014Z,6.79
2023-04-16T16:00:24.086Z,6.72
2023-04-16T16:02:50.912Z,6.81
2023-04-16T16:05:17.750Z,6.81
2023-04-16T16:07:44.995Z,6.83
2023-04-16T16:10:13.352Z,6.80
2023-04-16T16:12:41.285Z,6.78
2023-04-16T16:15:08.422Z,6.87
2023-04-16T16:17:35.193Z,6.81
2023-04-16T16:20:02.222Z,6.80
2023-04-16T16:22:29.964Z,6.83
2023-04-16T16:24:57.790Z,6.80
2023-04-16T16:27:24.623Z,6.85
2023-04-16T16:29:51.306Z,6.80
2023-04-16T16:32:18.048Z,6.80
2023-04-16T16:34:44.728Z,6.79
2023-04-16T16:37:11.336Z,6.78
2023-04-16T16:39:38.897Z,6.75
2023-04-16T16:42:06.054Z,6.65
2023-04-16T16:44:33.096Z,6.67
2023-04-16T16:46:59.927Z,6.65
2023-04-16T16:49:27.344Z,6.69
2023-04-16T16:51:53.931Z,6.22
2023-04-16T16:54:20.954Z,6.62
2023-04-16T16:56:47.667Z,6.71
2023-04-16T16:59:14.449Z,6.64
2023-04-16T17:01:41.271Z,6.66
2023-04-16T17:04:08.178Z,6.69
2023-04-16T17:06:35.026Z,6.63
2023-04-16T17:09:02.268Z,6.72
2023-04-16T17:11:29.448Z,6.73
2023-04-16T17:13:56.113Z,6.71
2023-04-16T17:16:23.988Z,6.67
2023-04-16T17:18:50.963Z,6.63
2023-04-16T17:21:17.737Z,6.69
2023-04-16T17:23:44.434Z,6.69
2023-04-16T17:26:11.338Z,6.66
2023-04-16T17:28:38.089Z,6.65
2023-04-16T17:31:07.210Z,6.60
2023-04-16T17:33:36.841Z,6.64
2023-04-16T17:36:03.753Z,6.60
2023-04-16T17:38:30.552Z,6.57
2023-04-16T17:40:57.822Z,6.63
2023-04-16T17:43:24.551Z,6.65
2023-04-16T17:45:51.252Z,6.68
2023-04-16T17:48:18.315Z,6.69
2023-04-16T17:50:44.981Z,6.65
2023-04-16T17:53:11.698Z,6.67
2023-04-16T17:55:38.362Z,6.71
2023-04-16T17:58:05.060Z,6.65
2023-04-16T18:00:31.695Z,6.67
2023-04-16T18:02:59.779Z,6.57
2023-04-16T18:05:26.740Z,6.68
2023-04-16T18:07:53.738Z,6.68
2023-04-16T18:10:20.537Z,6.68
2023-04-16T18:12:47.263Z,6.73
2023-04-16T18:15:13.928Z,6.75
2023-04-16T18:17:40.702Z,6.75
2023-04-16T18:20:09.287Z,6.73
2023-04-16T18:22:35.960Z,6.68
2023-04-16T18:25:02.615Z,6.73
2023-04-16T18:27:29.967Z,6.75
2023-04-16T18:29:57.085Z,6.78
2023-04-16T18:32:24.241Z,6.78
2023-04-16T18:34:55.528Z,6.74
2023-04-16T18:37:22.391Z,6.41
2023-04-16T18:39:49.121Z,6.68
2023-04-16T18:42:15.787Z,6.81
2023-04-16T18:44:42.443Z,6.79
2023-04-16T18:47:09.068Z,6.80
2023-04-16T18:49:35.762Z,6.74
2023-04-16T18:52:02.439Z,6.74
2023-04-16T18:54:29.166Z,6.74
2023-04-16T18:56:57.313Z,6.69
2023-04-16T18:59:24.896Z,6.69
2023-04-16T19:01:51.740Z,6.68
2023-04-16T19:04:18.535Z,6.60
2023-04-16T19:06:45.775Z,6.60
2023-04-16T19:09:12.923Z,6.68
2023-04-16T19:11:40.478Z,6.36
2023-04-16T19:14:08.364Z,6.64
2023-04-16T19:16:35.506Z,6.54
2023-04-16T19:19:02.251Z,6.65
2023-04-16T19:21:28.863Z,6.66
2023-04-16T19:23:56.010Z,6.63
2023-04-16T19:26:22.716Z,6.63
2023-04-16T19:28:49.313Z,6.61
2023-04-16T19:31:16.526Z,6.71
2023-04-16T19:33:43.341Z,6.65
2023-04-16T19:36:10.157Z,6.69
2023-04-16T19:38:36.823Z,6.70
2023-04-16T19:41:03.486Z,6.71
2023-04-16T19:43:31.131Z,6.69
2023-04-16T19:46:01.216Z,6.56
2023-04-16T19:48:27.973Z,6.69
2023-04-16T19:50:54.856Z,6.61
2023-04-16T19:53:21.899Z,6.40
2023-04-16T19:55:48.727Z,6.65
2023-04-16T19:58:15.464Z,6.60
2023-04-16T20:00:45.204Z,6.68
2023-04-16T20:03:11.937Z,6.57
2023-04-16T20:05:38.648Z,6.74
2023-04-16T20:08:07.813Z,6.62
2023-04-16T20:10:34.580Z,6.61
2023-04-16T20:13:01.725Z,6.60
2023-04-16T20:15:28.395Z,6.54
2023-04-16T20:17:56.302Z,6.71
2023-04-16T20:20:23.807Z,6.64
2023-04-16T20:22:50.944Z,6.70
2023-04-16T20:25:19.360Z,6.68
2023-04-16T20:27:46.346Z,6.67
2023-04-16T20:30:13.771Z,6.66
2023-04-16T20:32:40.717Z,6.62
2023-04-16T20:35:10.806Z,6.66
2023-04-16T20:37:42.398Z,6.66
2023-04-16T20:40:09.743Z,6.67
2023-04-16T20:42:36.503Z,6.62
2023-04-16T20:45:03.272Z,6.60
2023-04-16T20:47:29.932Z,6.64
2023-04-16T20:49:56.555Z,6.65
2023-04-16T20:52:23.202Z,6.50
2023-04-16T20:54:52.165Z,6.68
2023-04-16T20:57:18.998Z,6.69
2023-04-16T20:59:46.328Z,6.65
2023-04-16T21:02:13.260Z,6.60
2023-04-16T21:04:40.285Z,6.68
2023-04-16T21:07:07.374Z,6.53
2023-04-16T21:09:34.049Z,6.56
2023-04-16T21:12:01.604Z,6.70
2023-04-16T21:14:28.240Z,6.65
2023-04-16T21:16:55.036Z,6.69
2023-04-16T21:19:22.654Z,6.66
2023-04-16T21:21:49.467Z,6.66
2023-04-16T21:24:16.840Z,6.68
2023-04-16T21:26:43.455Z,6.50
2023-04-16T21:29:10.282Z,6.52
2023-04-16T21:31:37.190Z,6.71
2023-04-16T21:34:04.052Z,6.64
2023-04-16T21:36:32.117Z,6.57
2023-04-16T21:38:58.942Z,6.57
2023-04-16T21:41:25.814Z,6.57
2023-04-16T21:43:52.478Z,6.51
2023-04-16T21:46:19.302Z,6.61
2023-04-16T21:48:46.339Z,6.62
2023-04-16T21:51:14.152Z,6.65
2023-04-16T21:53:40.934Z,6.62
2023-04-16T21:56:08.322Z,6.62
2023-04-16T21:58:35.076Z,6.61
2023-04-16T22:01:01.868Z,6.66
2023-04-16T22:03:31.132Z,6.65
2023-04-16T22:06:01.667Z,6.73
2023-04-16T22:08:29.276Z,6.64
2023-04-16T22:11:01.592Z,6.64
2023-04-16T22:13:32.759Z,6.63
2023-04-16T22:16:02.514Z,6.67
2023-04-16T22:18:33.191Z,6.60
2023-04-16T22:21:00.486Z,6.73
2023-04-16T22:23:27.225Z,6.55
2023-04-16T22:25:55.456Z,6.50
2023-04-16T22:28:22.385Z,6.45
2023-04-16T22:30:49.800Z,6.55
2023-04-16T22:33:16.559Z,6.43
2023-04-16T22:35:43.330Z,6.58
2023-04-16T22:38:10.479Z,6.53
2023-04-16T22:40:37.328Z,6.54
2023-04-16T22:43:04.205Z,6.58
2023-04-16T22:45:31.016Z,6.62
2023-04-16T22:47:57.848Z,6.50
2023-04-16T22:50:24.563Z,6.55
2023-04-16T22:52:51.235Z,6.60
2023-04-16T22:55:18.215Z,6.47
2023-04-16T22:57:44.914Z,6.57
2023-04-16T23:00:16.337Z,6.50
2023-04-16T23:02:46.088Z,6.29
2023-04-16T23:05:12.915Z,6.32
2023-04-16T23:07:39.683Z,6.44
2023-04-16T23:10:08.524Z,6.41
2023-04-16T23:12:37.677Z,6.39
2023-04-16T23:15:06.914Z,6.54
2023-04-16T23:17:35.337Z,6.57
2023-04-16T23:20:02.418Z,6.50
2023-04-16T23:22:29.459Z,6.51
2023-04-16T23:24:56.157Z,6.24
2023-04-16T23:27:23.016Z,6.46
2023-04-16T23:29:49.963Z,6.54
2023-04-16T23:32:17.014Z,6.49
2023-04-16T23:34:47.080Z,6.45
2023-04-16T23:37:13.860Z,6.56
2023-04-16T23:39:41.170Z,6.55
2023-04-16T23:42:07.807Z,6.54
2023-04-16T23:44:34.521Z,6.45
2023-04-16T23:47:01.266Z,6.49
2023-04-16T23:49:28.151Z,6.54
2023-04-16T23:51:54.824Z,6.46
2023-04-16T23:54:21.535Z,6.52
2023-04-16T23:56:48.343Z,6.50
2023-04-16T23:59:15.134Z,6.50
